sensor_id;sensor_type;location;lat;lon;timestamp;pressure;altitude;pressure_sealevel;temperature;humidity
40315;BME280;26021;45.640;11.302;2023-03-26T00:01:11;98364.56;;;10.12;100.00
40315;BME280;26021;45.640;11.302;2023-03-26T00:03:41;98367.50;;;10.32;100.00
40315;BME280;26021;45.640;11.302;2023-03-26T00:06:11;98368.63;;;10.08;100.00
40315;BME280;26021;45.640;11.302;2023-03-26T00:08:38;98375.72;;;10.15;100.00
40315;BME280;26021;45.640;11.302;2023-03-26T00:11:06;98376.44;;;10.09;100.00
40315;BME280;26021;45.640;11.302;2023-03-26T00:13:32;98376.81;;;10.06;100.00
40315;BME280;26021;45.640;11.302;2023-03-26T00:15:58;98367.78;;;10.07;100.00
40315;BME280;26021;45.640;11.302;2023-03-26T00:18:24;98353.69;;;9.84;100.00
40315;BME280;26021;45.640;11.302;2023-03-26T00:20:58;98376.19;;;9.90;100.00
40315;BME280;26021;45.640;11.302;2023-03-26T00:23:24;98384.00;;;9.91;100.00
40315;BME280;26021;45.640;11.302;2023-03-26T00:25:50;98378.28;;;9.94;100.00
40315;BME280;26021;45.640;11.302;2023-03-26T00:28:16;98382.72;;;10.02;100.00
40315;BME280;26021;45.640;11.302;2023-03-26T00:30:46;98324.78;;;9.73;100.00
40315;BME280;26021;45.640;11.302;2023-03-26T00:33:11;98360.34;;;9.88;100.00
40315;BME280;26021;45.640;11.302;2023-03-26T00:35:42;98379.41;;;10.00;100.00
40315;BME280;26021;45.640;11.302;2023-03-26T00:38:14;98372.66;;;9.74;100.00
40315;BME280;26021;45.640;11.302;2023-03-26T00:40:40;98383.81;;;9.78;100.00
40315;BME280;26021;45.640;11.302;2023-03-26T00:43:12;98364.44;;;9.61;100.00
40315;BME280;26021;45.640;11.302;2023-03-26T00:45:52;98389.16;;;9.78;100.00
40315;BME280;26021;45.640;11.302;2023-03-26T00:48:21;98386.16;;;9.58;100.00
40315;BME280;26021;45.640;11.302;2023-03-26T00:50:48;98385.50;;;9.56;100.00
40315;BME280;26021;45.640;11.302;2023-03-26T00:53:16;98393.19;;;9.36;100.00
40315;BME280;26021;45.640;11.302;2023-03-26T00:55:44;98386.28;;;9.27;100.00
40315;BME280;26021;45.640;11.302;2023-03-26T00:58:10;98384.78;;;9.62;100.00
40315;BME280;26021;45.640;11.302;2023-03-26T01:00:51;98376.38;;;9.50;100.00
40315;BME280;26021;45.640;11.302;2023-03-26T01:03:18;98383.94;;;9.62;100.00
40315;BME280;26021;45.640;11.302;2023-03-26T01:05:50;98386.75;;;9.68;100.00
40315;BME280;26021;45.640;11.302;2023-03-26T01:08:39;98380.09;;;9.64;100.00
40315;BME280;26021;45.640;11.302;2023-03-26T01:11:27;98372.59;;;9.45;100.00
40315;BME280;26021;45.640;11.302;2023-03-26T01:13:57;98364.75;;;9.66;100.00
40315;BME280;26021;45.640;11.302;2023-03-26T01:16:28;98355.03;;;9.50;100.00
40315;BME280;26021;45.640;11.302;2023-03-26T01:18:55;98334.03;;;9.47;100.00
40315;BME280;26021;45.640;11.302;2023-03-26T01:21:24;98355.84;;;9.51;100.00
40315;BME280;26021;45.640;11.302;2023-03-26T01:23:59;98352.72;;;9.47;100.00
40315;BME280;26021;45.640;11.302;2023-03-26T01:29:06;98344.91;;;9.46;100.00
40315;BME280;26021;45.640;11.302;2023-03-26T01:32:02;98297.53;;;9.10;100.00
40315;BME280;26021;45.640;11.302;2023-03-26T01:45:51;98293.50;;;9.14;100.00
40315;BME280;26021;45.640;11.302;2023-03-26T01:48:17;98309.50;;;9.14;100.00
40315;BME280;26021;45.640;11.302;2023-03-26T01:50:43;98312.44;;;9.05;100.00
40315;BME280;26021;45.640;11.302;2023-03-26T01:53:10;98255.06;;;8.86;100.00
40315;BME280;26021;45.640;11.302;2023-03-26T02:03:50;98280.00;;;9.31;100.00
40315;BME280;26021;45.640;11.302;2023-03-26T02:06:49;98287.91;;;9.24;100.00
40315;BME280;26021;45.640;11.302;2023-03-26T02:09:19;98288.66;;;9.33;100.00
40315;BME280;26021;45.640;11.302;2023-03-26T02:11:47;98294.25;;;9.23;100.00
40315;BME280;26021;45.640;11.302;2023-03-26T02:14:14;98289.66;;;9.32;100.00
40315;BME280;26021;45.640;11.302;2023-03-26T02:16:39;98295.06;;;9.09;100.00
40315;BME280;26021;45.640;11.302;2023-03-26T02:19:05;98274.03;;;8.91;100.00
40315;BME280;26021;45.640;11.302;2023-03-26T02:21:34;98290.56;;;9.09;100.00
40315;BME280;26021;45.640;11.302;2023-03-26T02:23:59;98297.31;;;8.74;100.00
40315;BME280;26021;45.640;11.302;2023-03-26T02:26:30;98299.28;;;8.80;100.00
40315;BME280;26021;45.640;11.302;2023-03-26T02:28:56;98294.22;;;8.85;100.00
40315;BME280;26021;45.640;11.302;2023-03-26T02:31:22;98301.38;;;8.93;100.00
40315;BME280;26021;45.640;11.302;2023-03-26T02:33:51;98270.47;;;8.76;100.00
40315;BME280;26021;45.640;11.302;2023-03-26T02:36:17;98301.41;;;9.08;100.00
40315;BME280;26021;45.640;11.302;2023-03-26T02:38:46;98304.31;;;8.98;100.00
40315;BME280;26021;45.640;11.302;2023-03-26T02:41:11;98309.03;;;8.88;100.00
40315;BME280;26021;45.640;11.302;2023-03-26T02:43:37;98316.28;;;9.02;100.00
40315;BME280;26021;45.640;11.302;2023-03-26T02:46:03;98307.69;;;9.15;100.00
40315;BME280;26021;45.640;11.302;2023-03-26T02:48:28;98298.56;;;9.09;100.00
40315;BME280;26021;45.640;11.302;2023-03-26T02:50:54;98268.56;;;8.84;100.00
40315;BME280;26021;45.640;11.302;2023-03-26T02:53:20;98301.59;;;9.06;100.00
40315;BME280;26021;45.640;11.302;2023-03-26T02:55:48;98299.75;;;9.07;100.00
40315;BME280;26021;45.640;11.302;2023-03-26T02:58:13;98294.31;;;9.00;100.00
40315;BME280;26021;45.640;11.302;2023-03-26T03:00:43;98297.38;;;8.89;100.00
40315;BME280;26021;45.640;11.302;2023-03-26T03:03:11;98297.38;;;8.89;100.00
40315;BME280;26021;45.640;11.302;2023-03-26T03:05:36;98303.50;;;8.98;100.00
40315;BME280;26021;45.640;11.302;2023-03-26T03:08:08;98290.16;;;8.75;100.00
40315;BME280;26021;45.640;11.302;2023-03-26T03:10:33;98289.16;;;8.76;100.00
40315;BME280;26021;45.640;11.302;2023-03-26T03:12:59;98263.91;;;8.64;100.00
40315;BME280;26021;45.640;11.302;2023-03-26T03:15:25;98243.34;;;8.26;100.00
40315;BME280;26021;45.640;11.302;2023-03-26T03:17:50;98299.75;;;8.84;100.00
40315;BME280;26021;45.640;11.302;2023-03-26T03:20:16;98304.03;;;8.70;100.00
40315;BME280;26021;45.640;11.302;2023-03-26T03:22:42;98320.59;;;8.57;100.00
40315;BME280;26021;45.640;11.302;2023-03-26T03:25:08;98314.81;;;8.77;100.00
40315;BME280;26021;45.640;11.302;2023-03-26T03:27:39;98321.03;;;8.69;100.00
40315;BME280;26021;45.640;11.302;2023-03-26T03:30:05;98322.78;;;8.54;100.00
40315;BME280;26021;45.640;11.302;2023-03-26T03:32:31;98315.09;;;8.59;100.00
40315;BME280;26021;45.640;11.302;2023-03-26T03:34:57;98310.72;;;8.66;100.00
40315;BME280;26021;45.640;11.302;2023-03-26T03:37:24;98226.59;;;8.18;100.00
40315;BME280;26021;45.640;11.302;2023-03-26T03:39:51;98304.72;;;8.41;100.00
40315;BME280;26021;45.640;11.302;2023-03-26T03:42:16;98248.69;;;8.49;100.00
40315;BME280;26021;45.640;11.302;2023-03-26T03:44:42;98309.72;;;8.67;100.00
40315;BME280;26021;45.640;11.302;2023-03-26T03:47:07;98315.69;;;8.69;100.00
40315;BME280;26021;45.640;11.302;2023-03-26T03:49:37;98266.31;;;8.27;100.00
40315;BME280;26021;45.640;11.302;2023-03-26T03:52:03;98315.34;;;8.72;100.00
40315;BME280;26021;45.640;11.302;2023-03-26T03:54:28;98315.41;;;8.64;100.00
40315;BME280;26021;45.640;11.302;2023-03-26T03:56:54;98305.38;;;8.66;100.00
40315;BME280;26021;45.640;11.302;2023-03-26T03:59:20;98310.34;;;8.46;100.00
40315;BME280;26021;45.640;11.302;2023-03-26T04:01:45;98301.88;;;8.43;100.00
40315;BME280;26021;45.640;11.302;2023-03-26T04:04:11;98237.31;;;8.02;100.00
40315;BME280;26021;45.640;11.302;2023-03-26T04:06:36;98309.00;;;8.50;100.00
40315;BME280;26021;45.640;11.302;2023-03-26T04:09:02;98297.25;;;8.37;100.00
40315;BME280;26021;45.640;11.302;2023-03-26T04:11:28;98284.78;;;8.29;100.00
40315;BME280;26021;45.640;11.302;2023-03-26T04:13:53;98279.44;;;8.60;100.00
40315;BME280;26021;45.640;11.302;2023-03-26T04:16:19;98259.16;;;8.28;100.00
40315;BME280;26021;45.640;11.302;2023-03-26T04:18:45;98292.09;;;8.35;100.00
40315;BME280;26021;45.640;11.302;2023-03-26T04:21:10;98247.03;;;8.17;100.00
40315;BME280;26021;45.640;11.302;2023-03-26T04:23:37;98267.19;;;8.20;100.00
40315;BME280;26021;45.640;11.302;2023-03-26T04:26:05;98263.81;;;8.26;100.00
40315;BME280;26021;45.640;11.302;2023-03-26T04:31:14;98253.53;;;8.23;100.00
40315;BME280;26021;45.640;11.302;2023-03-26T04:33:43;98249.94;;;8.39;100.00
40315;BME280;26021;45.640;11.302;2023-03-26T04:36:14;98255.53;;;8.21;100.00
40315;BME280;26021;45.640;11.302;2023-03-26T04:38:45;98218.03;;;8.00;100.00
40315;BME280;26021;45.640;11.302;2023-03-26T04:41:14;98254.09;;;8.41;100.00
40315;BME280;26021;45.640;11.302;2023-03-26T04:43:40;98253.25;;;8.10;100.00
40315;BME280;26021;45.640;11.302;2023-03-26T04:46:12;98259.16;;;8.28;100.00
40315;BME280;26021;45.640;11.302;2023-03-26T04:48:37;98260.94;;;8.05;100.00
40315;BME280;26021;45.640;11.302;2023-03-26T04:51:04;98266.66;;;7.93;100.00
40315;BME280;26021;45.640;11.302;2023-03-26T04:53:31;98278.69;;;7.81;100.00
40315;BME280;26021;45.640;11.302;2023-03-26T04:56:02;98209.22;;;7.68;100.00
40315;BME280;26021;45.640;11.302;2023-03-26T04:58:32;98272.53;;;8.12;100.00
40315;BME280;26021;45.640;11.302;2023-03-26T05:00:59;98271.00;;;8.17;100.00
40315;BME280;26021;45.640;11.302;2023-03-26T05:03:26;98263.88;;;8.18;100.00
40315;BME280;26021;45.640;11.302;2023-03-26T05:06:00;98266.69;;;8.16;100.00
40315;BME280;26021;45.640;11.302;2023-03-26T05:08:26;98242.75;;;8.08;100.00
40315;BME280;26021;45.640;11.302;2023-03-26T05:10:54;98273.19;;;8.22;100.00
40315;BME280;26021;45.640;11.302;2023-03-26T05:13:21;98269.53;;;8.15;100.00
40315;BME280;26021;45.640;11.302;2023-03-26T05:15:46;98263.13;;;8.01;100.00
40315;BME280;26021;45.640;11.302;2023-03-26T05:18:12;98268.63;;;8.00;100.00
40315;BME280;26021;45.640;11.302;2023-03-26T05:20:37;98265.53;;;8.19;100.00
40315;BME280;26021;45.640;11.302;2023-03-26T05:23:03;98236.91;;;8.13;100.00
40315;BME280;26021;45.640;11.302;2023-03-26T05:25:28;98274.31;;;8.27;100.00
40315;BME280;26021;45.640;11.302;2023-03-26T05:27:53;98260.22;;;8.19;100.00
40315;BME280;26021;45.640;11.302;2023-03-26T05:30:20;98269.03;;;8.11;100.00
40315;BME280;26021;45.640;11.302;2023-03-26T05:32:47;98268.69;;;8.22;100.00
40315;BME280;26021;45.640;11.302;2023-03-26T05:35:16;98258.09;;;8.06;100.00
40315;BME280;26021;45.640;11.302;2023-03-26T05:37:43;98266.38;;;8.11;100.00
40315;BME280;26021;45.640;11.302;2023-03-26T05:40:10;98254.13;;;8.02;100.00
40315;BME280;26021;45.640;11.302;2023-03-26T05:42:37;98281.28;;;8.28;100.00
40315;BME280;26021;45.640;11.302;2023-03-26T05:45:05;98283.28;;;8.35;100.00
40315;BME280;26021;45.640;11.302;2023-03-26T05:47:31;98273.47;;;8.27;100.00
40315;BME280;26021;45.640;11.302;2023-03-26T05:49:56;98270.81;;;8.27;100.00
40315;BME280;26021;45.640;11.302;2023-03-26T05:52:22;98292.44;;;8.32;100.00
40315;BME280;26021;45.640;11.302;2023-03-26T05:54:47;98291.06;;;8.44;100.00
40315;BME280;26021;45.640;11.302;2023-03-26T05:57:12;98295.03;;;8.48;100.00
40315;BME280;26021;45.640;11.302;2023-03-26T05:59:38;98301.34;;;8.47;100.00
40315;BME280;26021;45.640;11.302;2023-03-26T06:02:03;98264.16;;;8.54;100.00
40315;BME280;26021;45.640;11.302;2023-03-26T06:04:29;98296.91;;;8.63;100.00
40315;BME280;26021;45.640;11.302;2023-03-26T06:06:56;98293.47;;;8.54;100.00
40315;BME280;26021;45.640;11.302;2023-03-26T06:09:21;98280.69;;;8.72;100.00
40315;BME280;26021;45.640;11.302;2023-03-26T06:11:47;98275.75;;;8.84;100.00
40315;BME280;26021;45.640;11.302;2023-03-26T06:14:12;98280.34;;;9.13;100.00
40315;BME280;26021;45.640;11.302;2023-03-26T06:16:37;98299.59;;;9.23;100.00
40315;BME280;26021;45.640;11.302;2023-03-26T06:19:03;98278.53;;;9.28;100.00
40315;BME280;26021;45.640;11.302;2023-03-26T06:21:28;98284.25;;;9.40;100.00
40315;BME280;26021;45.640;11.302;2023-03-26T06:23:54;98269.34;;;9.45;100.00
40315;BME280;26021;45.640;11.302;2023-03-26T06:26:19;98221.84;;;9.26;100.00
40315;BME280;26021;45.640;11.302;2023-03-26T06:28:45;98284.53;;;9.60;100.00
40315;BME280;26021;45.640;11.302;2023-03-26T06:31:11;98280.38;;;9.57;100.00
40315;BME280;26021;45.640;11.302;2023-03-26T06:33:36;98282.81;;;9.67;100.00
40315;BME280;26021;45.640;11.302;2023-03-26T06:36:02;98282.59;;;9.83;100.00
40315;BME280;26021;45.640;11.302;2023-03-26T06:38:27;98282.88;;;9.88;100.00
40315;BME280;26021;45.640;11.302;2023-03-26T06:40:53;98278.88;;;10.13;100.00
40315;BME280;26021;45.640;11.302;2023-03-26T06:43:18;98284.38;;;10.41;100.00
40315;BME280;26021;45.640;11.302;2023-03-26T06:45:49;98248.78;;;10.62;100.00
40315;BME280;26021;45.640;11.302;2023-03-26T06:48:14;98275.69;;;11.03;100.00
40315;BME280;26021;45.640;11.302;2023-03-26T06:50:40;98268.00;;;11.15;100.00
40315;BME280;26021;45.640;11.302;2023-03-26T06:53:05;98262.25;;;10.97;100.00
40315;BME280;26021;45.640;11.302;2023-03-26T06:55:31;98272.56;;;11.21;100.00
40315;BME280;26021;45.640;11.302;2023-03-26T06:57:56;98275.25;;;11.56;100.00
40315;BME280;26021;45.640;11.302;2023-03-26T07:00:22;98256.97;;;11.31;100.00
40315;BME280;26021;45.640;11.302;2023-03-26T07:02:47;98262.38;;;11.72;100.00
40315;BME280;26021;45.640;11.302;2023-03-26T07:05:13;98213.09;;;11.67;100.00
40315;BME280;26021;45.640;11.302;2023-03-26T07:07:38;98260.50;;;12.01;100.00
40315;BME280;26021;45.640;11.302;2023-03-26T07:10:05;98250.06;;;12.32;100.00
40315;BME280;26021;45.640;11.302;2023-03-26T07:12:31;98258.72;;;12.28;100.00
40315;BME280;26021;45.640;11.302;2023-03-26T07:14:56;98228.66;;;12.52;100.00
40315;BME280;26021;45.640;11.302;2023-03-26T07:17:22;98253.22;;;12.49;100.00
40315;BME280;26021;45.640;11.302;2023-03-26T07:19:47;98244.41;;;12.68;100.00
40315;BME280;26021;45.640;11.302;2023-03-26T07:22:18;98209.69;;;12.47;100.00
40315;BME280;26021;45.640;11.302;2023-03-26T07:24:44;98209.28;;;12.57;100.00
40315;BME280;26021;45.640;11.302;2023-03-26T07:27:35;98218.78;;;13.32;100.00
40315;BME280;26021;45.640;11.302;2023-03-26T07:30:07;98210.31;;;13.15;100.00
40315;BME280;26021;45.640;11.302;2023-03-26T07:32:56;98195.25;;;13.08;100.00
40315;BME280;26021;45.640;11.302;2023-03-26T07:35:40;98207.00;;;13.33;100.00
40315;BME280;26021;45.640;11.302;2023-03-26T07:43:53;98179.34;;;13.39;100.00
40315;BME280;26021;45.640;11.302;2023-03-26T07:46:29;98053.88;;;12.82;100.00
40315;BME280;26021;45.640;11.302;2023-03-26T07:48:56;98178.19;;;13.73;100.00
40315;BME280;26021;45.640;11.302;2023-03-26T07:51:24;98171.16;;;14.17;99.35
40315;BME280;26021;45.640;11.302;2023-03-26T07:53:50;98168.34;;;14.37;97.74
40315;BME280;26021;45.640;11.302;2023-03-26T07:56:18;98162.94;;;14.43;97.31
40315;BME280;26021;45.640;11.302;2023-03-26T07:58:47;98163.88;;;14.55;97.71
40315;BME280;26021;45.640;11.302;2023-03-26T08:12:54;98155.44;;;15.02;95.32
40315;BME280;26021;45.640;11.302;2023-03-26T08:15:29;98154.91;;;15.11;93.62
40315;BME280;26021;45.640;11.302;2023-03-26T08:21:06;98121.72;;;15.17;91.03
40315;BME280;26021;45.640;11.302;2023-03-26T08:23:57;98146.31;;;15.03;84.91
40315;BME280;26021;45.640;11.302;2023-03-26T08:27:11;98140.38;;;14.94;84.06
40315;BME280;26021;45.640;11.302;2023-03-26T08:32:27;98137.69;;;14.94;88.30
40315;BME280;26021;45.640;11.302;2023-03-26T08:34:53;98119.75;;;14.88;88.42
40315;BME280;26021;45.640;11.302;2023-03-26T08:37:18;98129.63;;;15.12;85.64
40315;BME280;26021;45.640;11.302;2023-03-26T08:39:44;98089.09;;;15.25;81.15
40315;BME280;26021;45.640;11.302;2023-03-26T08:56:07;98099.09;;;15.55;81.26
40315;BME280;26021;45.640;11.302;2023-03-26T09:15:49;98055.06;;;15.79;82.70
40315;BME280;26021;45.640;11.302;2023-03-26T09:26:58;98040.06;;;15.83;81.08
40315;BME280;26021;45.640;11.302;2023-03-26T09:42:53;98014.06;;;15.59;85.32
40315;BME280;26021;45.640;11.302;2023-03-26T09:48:09;98016.53;;;16.02;83.68
40315;BME280;26021;45.640;11.302;2023-03-26T09:50:42;98009.41;;;16.08;81.48
40315;BME280;26021;45.640;11.302;2023-03-26T09:58:48;97987.34;;;15.57;83.33
40315;BME280;26021;45.640;11.302;2023-03-26T10:01:29;97987.81;;;15.36;83.58
40315;BME280;26021;45.640;11.302;2023-03-26T10:07:25;97974.75;;;15.21;86.46
40315;BME280;26021;45.640;11.302;2023-03-26T10:10:16;97981.31;;;15.55;84.92
40315;BME280;26021;45.640;11.302;2023-03-26T10:12:51;97971.97;;;15.28;86.75
40315;BME280;26021;45.640;11.302;2023-03-26T10:30:22;97974.97;;;15.50;86.84
40315;BME280;26021;45.640;11.302;2023-03-26T10:38:14;97959.25;;;15.65;87.10
40315;BME280;26021;45.640;11.302;2023-03-26T10:41:07;97962.47;;;15.85;86.78
40315;BME280;26021;45.640;11.302;2023-03-26T10:52:11;97951.53;;;15.69;86.14
40315;BME280;26021;45.640;11.302;2023-03-26T10:55:43;97941.00;;;15.49;87.40
40315;BME280;26021;45.640;11.302;2023-03-26T10:57:55;97917.03;;;15.29;88.53
40315;BME280;26021;45.640;11.302;2023-03-26T11:00:24;97959.25;;;15.65;87.66
40315;BME280;26021;45.640;11.302;2023-03-26T11:17:13;97920.28;;;16.38;80.77
40315;BME280;26021;45.640;11.302;2023-03-26T11:19:56;97935.63;;;16.61;82.96
40315;BME280;26021;45.640;11.302;2023-03-26T11:33:12;97904.84;;;16.85;80.40
40315;BME280;26021;45.640;11.302;2023-03-26T11:35:47;97885.94;;;16.85;79.08
40315;BME280;26021;45.640;11.302;2023-03-26T11:38:25;97886.84;;;16.91;78.65
40315;BME280;26021;45.640;11.302;2023-03-26T11:40:55;97874.75;;;16.93;79.36
40315;BME280;26021;45.640;11.302;2023-03-26T11:43:26;97861.56;;;16.68;79.58
40315;BME280;26021;45.640;11.302;2023-03-26T11:45:54;97876.28;;;16.89;79.36
40315;BME280;26021;45.640;11.302;2023-03-26T11:50:59;97866.22;;;17.13;79.60
40315;BME280;26021;45.640;11.302;2023-03-26T11:53:28;97869.69;;;16.97;81.01
40315;BME280;26021;45.640;11.302;2023-03-26T11:58:30;97892.47;;;16.49;83.09
40315;BME280;26021;45.640;11.302;2023-03-26T12:01:02;97864.91;;;16.35;82.31
40315;BME280;26021;45.640;11.302;2023-03-26T12:03:28;97884.69;;;16.52;84.33
40315;BME280;26021;45.640;11.302;2023-03-26T12:05:57;97876.13;;;16.56;82.75
40315;BME280;26021;45.640;11.302;2023-03-26T12:08:33;97854.34;;;16.86;81.46
40315;BME280;26021;45.640;11.302;2023-03-26T12:11:10;97832.44;;;16.70;80.96
40315;BME280;26021;45.640;11.302;2023-03-26T12:13:44;97819.88;;;16.76;80.59
40315;BME280;26021;45.640;11.302;2023-03-26T12:16:17;97835.78;;;16.89;81.63
40315;BME280;26021;45.640;11.302;2023-03-26T12:18:44;97824.47;;;16.92;80.82
40315;BME280;26021;45.640;11.302;2023-03-26T12:21:17;97815.53;;;16.63;82.34
40315;BME280;26021;45.640;11.302;2023-03-26T12:23:49;97815.66;;;16.68;80.86
40315;BME280;26021;45.640;11.302;2023-03-26T12:26:18;97777.03;;;16.39;82.65
40315;BME280;26021;45.640;11.302;2023-03-26T12:28:49;97776.00;;;16.57;80.13
40315;BME280;26021;45.640;11.302;2023-03-26T12:31:16;97795.09;;;16.96;79.66
40315;BME280;26021;45.640;11.302;2023-03-26T12:33:44;97791.84;;;16.65;82.83
40315;BME280;26021;45.640;11.302;2023-03-26T12:38:47;97780.28;;;16.81;82.34
40315;BME280;26021;45.640;11.302;2023-03-26T12:41:15;97777.34;;;16.83;80.23
40315;BME280;26021;45.640;11.302;2023-03-26T12:43:45;97765.16;;;16.40;82.38
40315;BME280;26021;45.640;11.302;2023-03-26T12:46:27;97759.50;;;16.02;83.89
40315;BME280;26021;45.640;11.302;2023-03-26T12:48:58;97769.50;;;15.89;87.95
40315;BME280;26021;45.640;11.302;2023-03-26T12:51:53;97767.34;;;16.15;85.06
40315;BME280;26021;45.640;11.302;2023-03-26T12:54:35;97760.78;;;16.11;83.79
40315;BME280;26021;45.640;11.302;2023-03-26T12:57:24;97704.78;;;15.89;81.23
40315;BME280;26021;45.640;11.302;2023-03-26T13:16:35;97723.66;;;15.43;86.21
40315;BME280;26021;45.640;11.302;2023-03-26T13:22:02;97702.81;;;15.15;90.21
40315;BME280;26021;45.640;11.302;2023-03-26T13:25:00;97696.50;;;14.98;93.65
40315;BME280;26021;45.640;11.302;2023-03-26T13:35:21;97669.34;;;15.11;97.12
40315;BME280;26021;45.640;11.302;2023-03-26T13:41:08;97667.31;;;14.83;99.31
40315;BME280;26021;45.640;11.302;2023-03-26T13:48:59;97639.81;;;14.81;100.00
40315;BME280;26021;45.640;11.302;2023-03-26T13:51:38;97631.25;;;14.84;100.00
40315;BME280;26021;45.640;11.302;2023-03-26T13:54:21;97622.94;;;14.85;100.00
40315;BME280;26021;45.640;11.302;2023-03-26T13:56:55;97616.31;;;14.88;100.00
40315;BME280;26021;45.640;11.302;2023-03-26T13:59:54;97610.13;;;14.87;100.00
40315;BME280;26021;45.640;11.302;2023-03-26T14:02:27;97609.38;;;14.80;100.00
40315;BME280;26021;45.640;11.302;2023-03-26T14:04:59;97608.22;;;14.76;100.00
40315;BME280;26021;45.640;11.302;2023-03-26T14:21:28;97573.03;;;14.24;100.00
40315;BME280;26021;45.640;11.302;2023-03-26T14:24:14;97556.91;;;14.24;100.00
40315;BME280;26021;45.640;11.302;2023-03-26T14:26:56;97556.31;;;14.22;100.00
40315;BME280;26021;45.640;11.302;2023-03-26T14:30:27;97510.06;;;13.90;100.00
40315;BME280;26021;45.640;11.302;2023-03-26T14:35:22;97551.44;;;14.01;100.00
40315;BME280;26021;45.640;11.302;2023-03-26T14:54:12;97511.09;;;13.29;100.00
40315;BME280;26021;45.640;11.302;2023-03-26T15:20:32;97492.56;;;12.91;100.00
40315;BME280;26021;45.640;11.302;2023-03-26T15:35:18;97481.56;;;12.56;100.00
40315;BME280;26021;45.640;11.302;2023-03-26T15:38:03;97475.94;;;12.64;100.00
40315;BME280;26021;45.640;11.302;2023-03-26T15:41:10;97468.16;;;12.56;100.00
40315;BME280;26021;45.640;11.302;2023-03-26T15:51:58;97454.75;;;11.95;100.00
40315;BME280;26021;45.640;11.302;2023-03-26T15:54:31;97359.53;;;11.42;100.00
40315;BME280;26021;45.640;11.302;2023-03-26T16:00:08;97456.31;;;12.02;100.00
40315;BME280;26021;45.640;11.302;2023-03-26T16:02:44;97464.66;;;11.88;100.00
40315;BME280;26021;45.640;11.302;2023-03-26T16:30:00;97449.09;;;11.71;100.00
40315;BME280;26021;45.640;11.302;2023-03-26T16:34:57;97454.44;;;11.46;100.00
40315;BME280;26021;45.640;11.302;2023-03-26T16:46:01;97483.44;;;11.18;100.00
40315;BME280;26021;45.640;11.302;2023-03-26T16:54:18;97450.75;;;10.58;100.00
40315;BME280;26021;45.640;11.302;2023-03-26T16:56:59;97463.28;;;10.58;100.00
40315;BME280;26021;45.640;11.302;2023-03-26T17:07:57;97411.69;;;10.57;100.00
40315;BME280;26021;45.640;11.302;2023-03-26T17:14:31;97410.31;;;10.28;100.00
40315;BME280;26021;45.640;11.302;2023-03-26T17:19:41;97415.03;;;10.33;100.00
40315;BME280;26021;45.640;11.302;2023-03-26T17:25:00;97362.59;;;10.38;100.00
40315;BME280;26021;45.640;11.302;2023-03-26T17:30:52;97346.78;;;10.30;100.00
40315;BME280;26021;45.640;11.302;2023-03-26T17:33:26;97340.16;;;10.46;100.00
40315;BME280;26021;45.640;11.302;2023-03-26T17:41:04;97341.19;;;10.38;100.00
40315;BME280;26021;45.640;11.302;2023-03-26T17:43:49;97341.00;;;10.46;100.00
40315;BME280;26021;45.640;11.302;2023-03-26T17:54:19;97350.72;;;10.14;100.00
40315;BME280;26021;45.640;11.302;2023-03-26T17:56:47;97352.81;;;10.06;100.00
40315;BME280;26021;45.640;11.302;2023-03-26T17:59:18;97343.53;;;10.08;100.00
40315;BME280;26021;45.640;11.302;2023-03-26T18:01:49;97352.19;;;10.04;100.00
40315;BME280;26021;45.640;11.302;2023-03-26T18:04:38;97361.03;;;9.98;100.00
40315;BME280;26021;45.640;11.302;2023-03-26T18:07:39;97353.25;;;9.90;100.00
40315;BME280;26021;45.640;11.302;2023-03-26T18:12:54;97350.72;;;10.21;100.00
40315;BME280;26021;45.640;11.302;2023-03-26T18:18:23;97289.88;;;9.39;100.00
40315;BME280;26021;45.640;11.302;2023-03-26T18:20:51;97349.75;;;9.89;100.00
40315;BME280;26021;45.640;11.302;2023-03-26T18:23:33;97315.72;;;9.71;100.00
40315;BME280;26021;45.640;11.302;2023-03-26T18:26:36;97360.22;;;9.97;100.00
40315;BME280;26021;45.640;11.302;2023-03-26T18:31:52;97364.56;;;9.85;100.00
40315;BME280;26021;45.640;11.302;2023-03-26T18:34:19;97347.91;;;9.96;100.00
40315;BME280;26021;45.640;11.302;2023-03-26T18:36:46;97317.97;;;9.74;100.00
40315;BME280;26021;45.640;11.302;2023-03-26T18:39:21;97313.53;;;10.13;100.00
40315;BME280;26021;45.640;11.302;2023-03-26T18:41:46;97342.88;;;10.33;100.00
40315;BME280;26021;45.640;11.302;2023-03-26T18:44:15;97321.22;;;9.90;100.00
40315;BME280;26021;45.640;11.302;2023-03-26T18:46:42;97338.00;;;10.03;100.00
40315;BME280;26021;45.640;11.302;2023-03-26T18:49:12;97212.53;;;9.06;100.00
40315;BME280;26021;45.640;11.302;2023-03-26T18:51:39;97229.13;;;9.28;100.00
40315;BME280;26021;45.640;11.302;2023-03-26T18:54:06;97266.66;;;9.52;100.00
40315;BME280;26021;45.640;11.302;2023-03-26T18:58:59;97228.47;;;9.45;100.00
40315;BME280;26021;45.640;11.302;2023-03-26T19:01:27;97272.56;;;9.74;100.00
40315;BME280;26021;45.640;11.302;2023-03-26T19:04:00;97234.31;;;9.87;100.00
40315;BME280;26021;45.640;11.302;2023-03-26T19:06:29;97210.09;;;9.88;100.00
40315;BME280;26021;45.640;11.302;2023-03-26T19:09:01;97214.25;;;9.71;100.00
40315;BME280;26021;45.640;11.302;2023-03-26T19:11:30;97232.72;;;9.79;100.00
40315;BME280;26021;45.640;11.302;2023-03-26T19:14:04;97254.91;;;9.80;100.00
40315;BME280;26021;45.640;11.302;2023-03-26T19:16:32;97268.50;;;9.45;100.00
40315;BME280;26021;45.640;11.302;2023-03-26T19:19:02;97290.06;;;9.37;100.00
40315;BME280;26021;45.640;11.302;2023-03-26T19:21:29;97228.56;;;8.93;100.00
40315;BME280;26021;45.640;11.302;2023-03-26T19:23:56;97329.44;;;9.62;100.00